createdAt,value
2023-04-18T00:01:06.577Z,9.43
2023-04-18T00:03:33.299Z,8.15
2023-04-18T00:06:01.244Z,8.10
2023-04-18T00:08:27.782Z,7.00
2023-04-18T00:10:54.309Z,10.07
2023-04-18T00:13:20.841Z,9.85
2023-04-18T00:15:47.443Z,10.00
2023-04-18T00:18:14.237Z,13.15
2023-04-18T00:20:40.770Z,8.60
2023-04-18T00:23:07.317Z,9.20
2023-04-18T00:25:33.876Z,12.00
2023-04-18T00:28:00.431Z,7.60
2023-04-18T00:30:26.941Z,8.98
2023-04-18T00:32:53.474Z,10.40
2023-04-18T00:35:20.100Z,11.70
2023-04-18T00:37:46.642Z,9.93
2023-04-18T00:40:13.330Z,9.77
2023-04-18T00:42:39.894Z,12.15
2023-04-18T00:45:06.817Z,9.85
2023-04-18T00:47:33.413Z,12.45
2023-04-18T00:50:00.124Z,12.55
2023-04-18T00:52:26.664Z,9.63
2023-04-18T00:54:53.795Z,11.38
2023-04-18T00:57:20.298Z,14.05
2023-04-18T00:59:46.851Z,11.52
2023-04-18T01:02:13.436Z,13.15
2023-04-18T01:04:39.995Z,12.30
2023-04-18T01:07:06.590Z,13.27
2023-04-18T01:09:33.108Z,10.73
2023-04-18T01:11:59.617Z,13.10
2023-04-18T01:14:26.181Z,11.52
2023-04-18T01:16:52.682Z,15.15
2023-04-18T01:19:19.281Z,10.48
2023-04-18T01:21:45.842Z,11.18
2023-04-18T01:24:14.027Z,11.23
2023-04-18T01:26:41.053Z,13.93
2023-04-18T01:29:07.636Z,16.60
2023-04-18T01:31:37.616Z,12.38
2023-04-18T01:34:04.644Z,11.88
2023-04-18T01:36:31.414Z,14.63
2023-04-18T01:38:58.591Z,12.43
2023-04-18T01:41:25.146Z,11.88
2023-04-18T01:43:51.649Z,14.13
2023-04-18T01:46:18.474Z,14.45
2023-04-18T01:48:45.102Z,18.00
2023-04-18T01:51:11.645Z,9.30
2023-04-18T01:53:38.195Z,12.55
2023-04-18T01:56:04.896Z,12.40
2023-04-18T01:58:31.450Z,16.33
2023-04-18T02:00:58.005Z,15.25
2023-04-18T02:03:25.097Z,11.65
2023-04-18T02:05:51.777Z,12.65
2023-04-18T02:08:18.301Z,11.82
2023-04-18T02:10:44.856Z,14.57
2023-04-18T02:13:11.364Z,11.65
2023-04-18T02:15:37.904Z,11.77
2023-04-18T02:18:04.473Z,12.30
2023-04-18T02:20:31.046Z,11.57
2023-04-18T02:22:58.230Z,13.85
2023-04-18T02:25:24.863Z,13.07
2023-04-18T02:27:51.424Z,11.40
2023-04-18T02:30:17.973Z,9.93
2023-04-18T02:32:44.539Z,19.00
2023-04-18T02:35:11.329Z,11.32
2023-04-18T02:37:37.929Z,14.10
2023-04-18T02:40:04.813Z,10.55
2023-04-18T02:42:31.572Z,10.80
2023-04-18T02:44:58.119Z,13.43
2023-04-18T02:47:24.734Z,10.45
2023-04-18T02:49:51.282Z,15.45
2023-04-18T02:52:17.807Z,14.07
2023-04-18T02:54:44.363Z,12.75
2023-04-18T02:57:10.905Z,18.08
2023-04-18T02:59:37.424Z,8.88
2023-04-18T03:02:04.056Z,12.10
2023-04-18T03:04:30.667Z,9.27
2023-04-18T03:06:57.301Z,12.25
2023-04-18T03:09:23.956Z,12.30
2023-04-18T03:11:50.543Z,10.15
2023-04-18T03:14:17.073Z,11.60
2023-04-18T03:16:43.587Z,15.63
2023-04-18T03:19:10.112Z,10.30
2023-04-18T03:21:36.620Z,9.32
2023-04-18T03:24:03.192Z,7.82
2023-04-18T03:26:29.751Z,10.65
2023-04-18T03:28:56.274Z,8.52
2023-04-18T03:31:22.880Z,9.23
2023-04-18T03:33:49.464Z,11.02
2023-04-18T03:36:15.953Z,12.98
2023-04-18T03:38:42.460Z,8.63
2023-04-18T03:41:09.018Z,12.70
2023-04-18T03:43:35.520Z,8.27
2023-04-18T03:46:02.398Z,10.98
2023-04-18T03:48:29.099Z,8.80
2023-04-18T03:50:55.639Z,8.85
2023-04-18T03:53:22.146Z,6.38
2023-04-18T03:55:48.724Z,9.02
2023-04-18T03:58:15.297Z,11.30
2023-04-18T04:00:41.810Z,11.70
2023-04-18T04:03:08.516Z,9.68
2023-04-18T04:05:35.163Z,8.32
2023-04-18T04:08:01.701Z,10.50
2023-04-18T04:10:28.222Z,10.85
2023-04-18T04:12:54.775Z,7.07
2023-04-18T04:15:21.340Z,5.70
2023-04-18T04:17:47.921Z,9.05
2023-04-18T04:20:14.528Z,11.32
2023-04-18T04:22:41.050Z,10.57
2023-04-18T04:25:07.956Z,11.20
2023-04-18T04:27:34.464Z,7.32
2023-04-18T04:30:01.048Z,8.27
2023-04-18T04:32:27.650Z,10.52
2023-04-18T04:34:54.192Z,10.45
2023-04-18T04:37:20.774Z,9.70
2023-04-18T04:39:47.306Z,8.23
2023-04-18T04:42:13.861Z,8.45
2023-04-18T04:44:40.452Z,10.02
2023-04-18T04:47:07.423Z,11.27
2023-04-18T04:49:33.986Z,8.45
2023-04-18T04:52:01.899Z,8.57
2023-04-18T04:54:28.638Z,8.13
2023-04-18T04:56:55.129Z,7.72
2023-04-18T04:59:21.653Z,8.93
2023-04-18T05:01:48.335Z,8.77
2023-04-18T05:04:15.301Z,9.60
2023-04-18T05:06:42.112Z,8.45
2023-04-18T05:09:08.683Z,9.40
2023-04-18T05:11:35.233Z,8.10
2023-04-18T05:14:01.831Z,6.95
2023-04-18T05:16:28.441Z,7.22
2023-04-18T05:18:54.987Z,7.53
2023-04-18T05:21:21.541Z,6.15
2023-04-18T05:23:48.146Z,7.53
2023-04-18T05:26:14.721Z,7.90
2023-04-18T05:28:41.261Z,4.93
2023-04-18T05:31:07.868Z,6.28
2023-04-18T05:33:34.441Z,6.07
2023-04-18T05:36:00.998Z,6.97
2023-04-18T05:38:27.557Z,9.25
2023-04-18T05:40:54.094Z,7.68
2023-04-18T05:43:20.628Z,5.50
2023-04-18T05:45:47.482Z,5.53
2023-04-18T05:48:14.212Z,5.47
2023-04-18T05:50:40.845Z,5.75
2023-04-18T05:53:07.400Z,6.18
2023-04-18T05:55:33.904Z,5.45
2023-04-18T05:58:00.457Z,6.40
2023-04-18T06:00:27.542Z,6.75
2023-04-18T06:02:54.249Z,5.70
2023-04-18T06:05:21.234Z,4.22
2023-04-18T06:07:48.059Z,6.07
2023-04-18T06:10:14.603Z,6.15
2023-04-18T06:12:41.338Z,4.03
2023-04-18T06:15:08.527Z,4.90
2023-04-18T06:17:35.130Z,5.97
2023-04-18T06:20:02.037Z,4.50
2023-04-18T06:22:28.587Z,6.57
2023-04-18T06:24:55.076Z,6.50
2023-04-18T06:27:30.462Z,4.00
2023-04-18T06:29:58.305Z,4.05
2023-04-18T06:32:24.879Z,4.70
2023-04-18T06:34:51.516Z,5.95
2023-04-18T06:37:18.036Z,4.45
2023-04-18T06:39:44.569Z,4.10
2023-04-18T06:42:11.186Z,4.93
2023-04-18T06:44:37.729Z,5.00
2023-04-18T06:47:04.240Z,4.45
2023-04-18T06:49:30.774Z,5.50
2023-04-18T06:51:57.299Z,3.15
2023-04-18T06:54:23.951Z,5.97
2023-04-18T06:56:50.578Z,5.22
2023-04-18T06:59:17.329Z,4.28
2023-04-18T07:01:43.930Z,4.85
2023-04-18T07:04:10.834Z,4.93
2023-04-18T07:06:37.558Z,4.22
2023-04-18T07:09:04.097Z,5.60
2023-04-18T07:11:30.747Z,5.28
2023-04-18T07:13:57.351Z,6.07
2023-04-18T07:16:24.014Z,5.88
2023-04-18T07:18:50.688Z,5.80
2023-04-18T07:21:17.574Z,4.07
2023-04-18T07:23:44.101Z,5.78
2023-04-18T07:26:10.684Z,3.35
2023-04-18T07:28:37.282Z,4.53
2023-04-18T07:31:03.957Z,3.35
2023-04-18T07:33:30.585Z,5.57
2023-04-18T07:35:57.261Z,5.40
2023-04-18T07:38:23.810Z,3.05
2023-04-18T07:40:57.329Z,4.70
2023-04-18T07:43:23.993Z,6.50
2023-04-18T07:45:51.544Z,4.63
2023-04-18T07:48:18.185Z,5.25
2023-04-18T07:50:44.759Z,5.05
2023-04-18T07:53:11.317Z,3.90
2023-04-18T07:55:37.875Z,6.53
2023-04-18T07:58:04.399Z,3.35
2023-04-18T08:00:31.008Z,3.72
2023-04-18T08:02:57.629Z,3.22
2023-04-18T08:05:24.443Z,3.60
2023-04-18T08:07:51.054Z,4.00
2023-04-18T08:10:17.636Z,4.05
2023-04-18T08:12:44.146Z,4.25
2023-04-18T08:15:11.191Z,2.53
2023-04-18T08:17:37.886Z,3.85
2023-04-18T08:20:05.028Z,1.98
2023-04-18T08:22:31.545Z,4.65
2023-04-18T08:25:04.914Z,4.90
2023-04-18T08:27:32.259Z,3.67
2023-04-18T08:29:58.832Z,4.88
2023-04-18T08:32:25.726Z,5.65
2023-04-18T08:34:52.319Z,7.25
2023-04-18T08:37:18.908Z,2.67
2023-04-18T08:39:45.426Z,2.35
2023-04-18T08:42:12.044Z,3.70
2023-04-18T08:44:38.562Z,4.70
2023-04-18T08:47:07.628Z,4.78
2023-04-18T08:49:34.180Z,3.28
2023-04-18T08:52:00.752Z,4.93
2023-04-18T08:54:27.461Z,3.25
2023-04-18T08:57:06.785Z,4.95
2023-04-18T08:59:33.374Z,4.25
2023-04-18T09:01:59.954Z,4.35
2023-04-18T09:04:37.114Z,5.72
2023-04-18T09:07:04.659Z,4.18
2023-04-18T09:09:50.625Z,2.80
2023-04-18T09:12:18.359Z,5.13
2023-04-18T09:15:14.917Z,4.25
2023-04-18T09:17:45.738Z,4.30
2023-04-18T09:20:12.978Z,5.13
2023-04-18T09:22:49.995Z,5.68
2023-04-18T09:25:33.641Z,3.47
2023-04-18T09:28:00.581Z,6.03
2023-04-18T09:30:36.329Z,4.32
2023-04-18T09:33:04.230Z,4.05
2023-04-18T09:35:30.869Z,4.30
2023-04-18T09:37:57.416Z,6.47
2023-04-18T09:40:23.999Z,6.18
2023-04-18T09:42:51.856Z,4.68
2023-04-18T09:45:18.402Z,4.50
2023-04-18T09:47:45.018Z,3.40
2023-04-18T09:50:11.673Z,5.15
2023-04-18T09:52:39.769Z,5.15
2023-04-18T09:55:10.807Z,4.35
2023-04-18T09:57:37.856Z,7.28
2023-04-18T10:00:04.373Z,4.60
2023-04-18T10:02:34.247Z,5.15
2023-04-18T10:05:00.934Z,3.58
2023-04-18T10:07:27.553Z,6.32
2023-04-18T10:09:54.085Z,3.90
2023-04-18T10:12:20.684Z,3.28
2023-04-18T10:14:47.219Z,4.45
2023-04-18T10:17:14.583Z,3.17
2023-04-18T10:19:41.110Z,3.25
2023-04-18T10:22:07.806Z,3.88
2023-04-18T10:24:49.684Z,3.15
2023-04-18T10:27:16.902Z,3.95
2023-04-18T10:29:53.464Z,2.33
2023-04-18T10:32:22.313Z,2.80
2023-04-18T10:34:55.304Z,4.80
2023-04-18T10:37:21.894Z,2.40
2023-04-18T10:39:59.125Z,1.88
2023-04-18T10:42:47.488Z,4.80
2023-04-18T10:45:23.790Z,2.80
2023-04-18T10:47:50.514Z,2.55
2023-04-18T10:50:17.217Z,5.60
2023-04-18T10:52:43.809Z,2.60
2023-04-18T10:55:10.742Z,3.20
2023-04-18T10:57:41.426Z,3.45
2023-04-18T11:00:09.145Z,6.50
2023-04-18T11:02:35.796Z,3.83
2023-04-18T11:05:03.555Z,4.85
2023-04-18T11:07:43.503Z,2.65
2023-04-18T11:10:10.119Z,4.25
2023-04-18T11:12:38.027Z,5.40
2023-04-18T11:15:16.405Z,4.97
2023-04-18T11:17:43.161Z,2.72
2023-04-18T11:20:13.702Z,4.10
2023-04-18T11:22:50.637Z,2.67
2023-04-18T11:25:17.821Z,7.13
2023-04-18T11:27:48.295Z,4.18
2023-04-18T11:30:15.338Z,2.80
2023-04-18T11:32:41.985Z,3.08
2023-04-18T11:35:09.453Z,6.53
2023-04-18T11:37:36.809Z,3.17
2023-04-18T11:40:04.477Z,3.33
2023-04-18T11:42:34.010Z,4.57
2023-04-18T11:45:01.042Z,5.82
2023-04-18T11:47:32.823Z,3.92
2023-04-18T11:50:03.298Z,1.98
2023-04-18T11:52:30.806Z,4.22
2023-04-18T11:54:59.129Z,4.35
2023-04-18T11:57:26.931Z,2.75
2023-04-18T11:59:56.831Z,4.15
2023-04-18T12:02:43.566Z,4.75
2023-04-18T12:05:10.685Z,3.53
2023-04-18T12:07:41.759Z,2.63
2023-04-18T12:10:28.946Z,2.22
2023-04-18T12:12:56.992Z,4.63
2023-04-18T12:15:23.892Z,2.80
2023-04-18T12:17:50.499Z,2.75
2023-04-18T12:20:17.121Z,2.72
2023-04-18T12:22:45.726Z,2.05
2023-04-18T12:25:25.266Z,3.22
2023-04-18T12:27:58.503Z,3.03
2023-04-18T12:30:33.383Z,1.65
2023-04-18T12:33:02.122Z,2.80
2023-04-18T12:35:29.321Z,2.78
2023-04-18T12:37:56.637Z,3.95
2023-04-18T12:40:23.441Z,3.08
2023-04-18T12:42:50.595Z,3.00
2023-04-18T12:45:17.715Z,1.67
2023-04-18T12:47:45.319Z,2.60
2023-04-18T12:50:19.738Z,2.33
2023-04-18T12:52:46.498Z,3.70
2023-04-18T12:55:13.235Z,3.13
2023-04-18T12:57:39.992Z,2.58
2023-04-18T13:00:07.027Z,3.38
2023-04-18T13:02:33.640Z,2.55
2023-04-18T13:05:00.399Z,2.80
2023-04-18T13:07:27.047Z,1.67
2023-04-18T13:09:53.679Z,2.58
2023-04-18T13:12:20.245Z,2.70
2023-04-18T13:14:46.825Z,2.75
2023-04-18T13:17:13.377Z,1.48
2023-04-18T13:19:39.898Z,1.90
2023-04-18T13:22:06.408Z,2.58
2023-04-18T13:24:32.930Z,3.67
2023-04-18T13:27:01.274Z,3.25
2023-04-18T13:29:28.213Z,2.00
2023-04-18T13:31:54.816Z,2.17
2023-04-18T13:34:21.361Z,1.73
2023-04-18T13:36:47.912Z,1.38
2023-04-18T13:39:14.972Z,1.92
2023-04-18T13:41:41.720Z,1.85
2023-04-18T13:44:08.318Z,4.50
2023-04-18T13:46:35.023Z,5.05
2023-04-18T13:49:01.687Z,2.72
2023-04-18T13:51:28.279Z,1.15
2023-04-18T13:53:54.819Z,2.15
2023-04-18T13:56:21.407Z,2.63
2023-04-18T13:58:47.972Z,3.95
2023-04-18T14:01:14.541Z,2.25
2023-04-18T14:03:43.568Z,3.42
2023-04-18T14:06:10.502Z,3.78
2023-04-18T14:08:37.004Z,1.88
2023-04-18T14:11:03.551Z,2.85
2023-04-18T14:13:30.245Z,1.98
2023-04-18T14:15:56.870Z,4.10
2023-04-18T14:18:23.477Z,1.60
2023-04-18T14:20:50.517Z,2.60
2023-04-18T14:23:17.073Z,2.08
2023-04-18T14:25:43.632Z,2.33
2023-04-18T14:28:11.185Z,1.98
2023-04-18T14:30:38.512Z,2.28
2023-04-18T14:33:05.282Z,2.17
2023-04-18T14:35:32.129Z,2.75
2023-04-18T14:37:58.676Z,2.40
2023-04-18T14:40:25.263Z,3.63
2023-04-18T14:42:51.874Z,3.10
2023-04-18T14:45:18.423Z,3.05
2023-04-18T14:47:45.021Z,3.33
2023-04-18T14:50:11.643Z,3.10
2023-04-18T14:52:38.903Z,3.05
2023-04-18T14:55:06.676Z,3.00
2023-04-18T14:57:36.369Z,3.67
2023-04-18T15:00:07.017Z,3.85
2023-04-18T15:02:33.929Z,3.15
2023-04-18T15:05:00.777Z,3.40
2023-04-18T15:07:27.443Z,2.53
2023-04-18T15:09:53.997Z,4.03
2023-04-18T15:12:20.686Z,3.28
2023-04-18T15:14:47.317Z,2.08
2023-04-18T15:17:13.953Z,4.22
2023-04-18T15:19:40.508Z,2.25
2023-04-18T15:22:07.118Z,3.20
2023-04-18T15:24:33.634Z,3.97
2023-04-18T15:27:00.192Z,3.63
2023-04-18T15:29:26.786Z,3.08
2023-04-18T15:31:53.477Z,5.38
2023-04-18T15:34:20.125Z,3.28
2023-04-18T15:36:49.688Z,4.05
2023-04-18T15:41:42.662Z,3.00
2023-04-18T15:44:09.344Z,3.17
2023-04-18T15:46:36.450Z,2.97
2023-04-18T15:49:03.022Z,2.38
2023-04-18T15:51:29.635Z,2.22
2023-04-18T15:53:56.289Z,2.85
2023-04-18T15:56:25.149Z,4.00
2023-04-18T15:58:51.871Z,3.35
2023-04-18T16:01:18.419Z,2.08
2023-04-18T16:03:45.162Z,3.70
2023-04-18T16:06:12.839Z,3.78
2023-04-18T16:08:39.403Z,3.33
2023-04-18T16:11:06.538Z,2.85
2023-04-18T16:13:33.332Z,2.65
2023-04-18T16:15:59.982Z,4.65
2023-04-18T16:18:26.565Z,3.22
2023-04-18T16:20:53.111Z,2.72
2023-04-18T16:23:19.694Z,4.05
2023-04-18T16:25:46.248Z,2.75
2023-04-18T16:28:12.872Z,2.22
2023-04-18T16:30:39.473Z,2.80
2023-04-18T16:33:06.127Z,2.60
2023-04-18T16:35:32.749Z,2.70
2023-04-18T16:37:59.342Z,3.25
2023-04-18T16:40:26.061Z,1.33
2023-04-18T16:42:52.662Z,4.22
2023-04-18T16:45:19.211Z,3.65
2023-04-18T16:47:45.789Z,4.72
2023-04-18T16:50:12.460Z,3.85
2023-04-18T16:52:39.109Z,3.63
2023-04-18T16:55:05.922Z,2.15
2023-04-18T16:57:32.539Z,3.47
2023-04-18T16:59:59.162Z,2.30
2023-04-18T17:02:25.860Z,1.83
2023-04-18T17:04:52.544Z,3.10
2023-04-18T17:07:19.201Z,6.35
2023-04-18T17:09:45.724Z,2.47
2023-04-18T17:12:12.255Z,2.85
2023-04-18T17:14:38.766Z,4.72
2023-04-18T17:17:06.007Z,3.88
2023-04-18T17:19:32.530Z,1.80
2023-04-18T17:21:59.078Z,2.67
2023-04-18T17:24:25.647Z,4.05
2023-04-18T17:26:52.153Z,3.15
2023-04-18T17:29:18.705Z,2.55
2023-04-18T17:31:45.335Z,2.42
2023-04-18T17:34:11.895Z,3.35
2023-04-18T17:36:38.619Z,2.13
2023-04-18T17:39:05.183Z,2.33
2023-04-18T17:41:32.173Z,2.00
2023-04-18T17:43:58.982Z,3.53
2023-04-18T17:46:25.594Z,2.08
2023-04-18T17:48:52.132Z,2.35
2023-04-18T17:51:18.676Z,2.85
2023-04-18T17:53:45.264Z,1.95
2023-04-18T17:56:11.795Z,3.08
2023-04-18T17:58:38.881Z,3.55
2023-04-18T18:01:14.652Z,3.92
2023-04-18T18:03:41.338Z,2.55
2023-04-18T18:06:07.945Z,2.00
2023-04-18T18:08:34.472Z,4.53
2023-04-18T18:11:01.241Z,1.95
2023-04-18T18:13:27.786Z,3.20
2023-04-18T18:15:54.310Z,2.65
2023-04-18T18:18:20.832Z,2.83
2023-04-18T18:20:47.371Z,2.20
2023-04-18T18:23:14.896Z,2.70
2023-04-18T18:25:41.517Z,1.75
2023-04-18T18:28:08.071Z,2.10
2023-04-18T18:30:34.635Z,2.53
2023-04-18T18:33:01.419Z,2.42
2023-04-18T18:35:28.058Z,1.27
2023-04-18T18:37:54.612Z,3.53
2023-04-18T18:40:21.294Z,2.80
2023-04-18T18:42:47.888Z,2.78
2023-04-18T18:45:14.402Z,2.35
2023-04-18T18:47:40.961Z,2.38
2023-04-18T18:50:07.728Z,3.53
2023-04-18T18:52:34.286Z,3.88
2023-04-18T18:55:00.822Z,4.10
2023-04-18T18:57:27.611Z,2.08
2023-04-18T18:59:55.804Z,3.25
2023-04-18T19:02:22.909Z,1.70
2023-04-18T19:04:49.912Z,2.28
2023-04-18T19:07:16.477Z,3.25
2023-04-18T19:09:43.013Z,2.75
2023-04-18T19:12:09.662Z,3.53
2023-04-18T19:14:36.244Z,2.22
2023-04-18T19:17:02.780Z,2.00
2023-04-18T19:19:29.358Z,2.90
2023-04-18T19:21:55.866Z,2.75
2023-04-18T19:24:22.421Z,3.05
2023-04-18T19:26:48.972Z,4.28
2023-04-18T19:29:15.680Z,3.70
2023-04-18T19:31:42.388Z,3.38
2023-04-18T19:34:08.991Z,2.90
2023-04-18T19:36:35.530Z,5.55
2023-04-18T19:39:02.097Z,3.22
2023-04-18T19:41:28.650Z,4.32
2023-04-18T19:43:55.196Z,3.13
2023-04-18T19:46:21.776Z,3.47
2023-04-18T19:48:48.299Z,5.20
2023-04-18T19:51:14.842Z,2.55
2023-04-18T19:53:41.361Z,3.53
2023-04-18T19:56:07.874Z,2.75
2023-04-18T19:58:41.287Z,2.58
2023-04-18T20:01:07.905Z,5.90
2023-04-18T20:03:34.898Z,4.97
2023-04-18T20:06:01.583Z,4.97
2023-04-18T20:08:28.153Z,4.53
2023-04-18T20:10:54.690Z,2.80
2023-04-18T20:13:21.216Z,3.40
2023-04-18T20:15:47.755Z,5.90
2023-04-18T20:18:14.269Z,3.78
2023-04-18T20:20:40.845Z,3.63
2023-04-18T20:23:07.418Z,2.03
2023-04-18T20:25:33.977Z,3.33
2023-04-18T20:28:00.930Z,5.35
2023-04-18T20:30:27.476Z,2.78
2023-04-18T20:32:54.091Z,3.25
2023-04-18T20:35:20.672Z,3.10
2023-04-18T20:37:47.199Z,5.28
2023-04-18T20:40:13.783Z,4.35
2023-04-18T20:42:40.434Z,2.80
2023-04-18T20:45:07.487Z,4.10
2023-04-18T20:47:34.051Z,4.30
2023-04-18T20:50:00.603Z,4.20
2023-04-18T20:52:27.146Z,5.72
2023-04-18T20:54:53.693Z,8.20
2023-04-18T20:57:20.281Z,4.47
2023-04-18T20:59:46.816Z,3.58
2023-04-18T21:02:13.469Z,7.28
2023-04-18T21:04:40.282Z,5.75
2023-04-18T21:07:06.928Z,4.03
2023-04-18T21:09:33.504Z,4.47
2023-04-18T21:12:00.025Z,3.10
2023-04-18T21:14:26.579Z,4.03
2023-04-18T21:16:53.149Z,6.70
2023-04-18T21:19:19.670Z,6.35
2023-04-18T21:21:46.198Z,3.05
2023-04-18T21:24:12.773Z,4.55
2023-04-18T21:26:39.398Z,3.90
2023-04-18T21:29:05.992Z,4.25
2023-04-18T21:31:33.196Z,7.18
2023-04-18T21:34:03.446Z,5.25
2023-04-18T21:36:30.125Z,6.97
2023-04-18T21:38:58.048Z,3.35
2023-04-18T21:41:24.754Z,4.40
2023-04-18T21:43:51.382Z,3.63
2023-04-18T21:46:18.225Z,2.72
2023-04-18T21:48:46.138Z,4.68
2023-04-18T21:51:14.379Z,5.15
2023-04-18T21:53:41.086Z,3.85
2023-04-18T21:56:07.939Z,1.60
2023-04-18T21:58:34.506Z,2.45
2023-04-18T22:01:01.085Z,4.72
2023-04-18T22:03:27.868Z,6.97
2023-04-18T22:05:57.679Z,2.50
2023-04-18T22:08:24.884Z,3.58
2023-04-18T22:10:55.178Z,2.38
2023-04-18T22:13:22.456Z,4.07
2023-04-18T22:15:48.964Z,4.15
2023-04-18T22:18:15.595Z,4.13
2023-04-18T22:20:42.105Z,3.67
2023-04-18T22:23:08.688Z,3.20
2023-04-18T22:25:35.270Z,5.63
2023-04-18T22:28:02.294Z,2.63
2023-04-18T22:30:28.848Z,6.32
2023-04-18T22:32:55.468Z,1.92
2023-04-18T22:35:22.081Z,2.65
2023-04-18T22:37:48.687Z,4.00
2023-04-18T22:40:15.362Z,3.65
2023-04-18T22:42:41.947Z,1.90
2023-04-18T22:45:09.011Z,2.90
2023-04-18T22:47:35.560Z,4.05
2023-04-18T22:50:02.279Z,4.43
2023-04-18T22:52:29.225Z,3.08
2023-04-18T22:54:55.803Z,6.25
2023-04-18T22:57:22.359Z,4.07
2023-04-18T22:59:48.904Z,3.72
2023-04-18T23:02:15.530Z,2.95
2023-04-18T23:04:42.260Z,2.47
2023-04-18T23:07:09.003Z,2.17
2023-04-18T23:09:35.600Z,3.45
2023-04-18T23:12:02.164Z,3.17
2023-04-18T23:14:29.220Z,4.15
2023-04-18T23:16:55.786Z,3.20
2023-04-18T23:19:22.401Z,5.78
2023-04-18T23:21:49.746Z,4.28
2023-04-18T23:24:16.571Z,3.15
2023-04-18T23:26:43.189Z,4.68
2023-04-18T23:29:09.717Z,3.85
2023-04-18T23:31:36.344Z,2.67
2023-04-18T23:34:02.921Z,3.15
2023-04-18T23:36:29.459Z,1.40
2023-04-18T23:38:55.974Z,3.42
2023-04-18T23:41:22.538Z,3.70
2023-04-18T23:43:49.118Z,3.90
2023-04-18T23:46:15.783Z,4.32
2023-04-18T23:48:42.394Z,4.47
2023-04-18T23:51:08.897Z,3.47
2023-04-18T23:53:35.466Z,3.30
2023-04-18T23:56:01.992Z,3.97
2023-04-18T23:58:28.536Z,4.85
